createdAt,value
2024-02-04T00:01:30.753Z,151051.41
2024-02-04T00:03:32.459Z,151050.13
2024-02-04T00:05:34.071Z,151035.00
2024-02-04T00:07:35.765Z,151018.63
2024-02-04T00:09:38.242Z,151085.50
2024-02-04T00:11:39.783Z,151079.19
2024-02-04T00:13:41.326Z,151022.41
2024-02-04T00:15:43.015Z,151011.03
2024-02-04T00:17:44.627Z,151060.25
2024-02-04T00:19:46.260Z,151038.78
2024-02-04T00:21:48.046Z,150979.50
2024-02-04T00:23:49.594Z,151011.03
2024-02-04T00:25:51.235Z,151076.66
2024-02-04T00:27:52.931Z,150973.19
2024-02-04T00:29:54.483Z,151029.94
2024-02-04T00:31:56.082Z,151037.53
2024-02-04T00:33:57.861Z,151057.72
2024-02-04T00:35:59.432Z,150990.84
2024-02-04T00:38:01.198Z,150956.81
2024-02-04T00:40:03.027Z,150971.94
2024-02-04T00:42:06.283Z,151011.03
2024-02-04T00:44:07.936Z,150963.13
2024-02-04T00:46:09.715Z,151016.09
2024-02-04T00:48:11.314Z,150936.63
2024-02-04T00:50:13.268Z,150945.44
2024-02-04T00:52:14.858Z,150956.81
2024-02-04T00:54:16.371Z,151016.09
2024-02-04T00:56:18.198Z,150974.47
2024-02-04T00:58:19.772Z,151016.09
2024-02-04T01:00:21.462Z,150989.59
2024-02-04T01:02:23.386Z,150998.44
2024-02-04T01:04:25.051Z,151026.19
2024-02-04T01:06:26.820Z,150980.78
2024-02-04T01:08:28.812Z,151036.28
2024-02-04T01:10:30.327Z,150982.03
2024-02-04T01:12:31.880Z,151061.50
2024-02-04T01:14:33.817Z,150990.84
2024-02-04T01:16:35.317Z,151036.28
2024-02-04T01:18:36.940Z,151003.50
2024-02-04T01:20:39.012Z,150999.69
2024-02-04T01:22:40.503Z,151031.22
2024-02-04T01:24:42.042Z,151016.09
2024-02-04T01:26:44.086Z,151024.94
2024-02-04T01:28:45.626Z,151045.13
2024-02-04T01:30:47.167Z,151029.94
2024-02-04T01:32:49.479Z,151058.97
2024-02-04T01:34:51.118Z,151026.19
2024-02-04T01:36:52.692Z,150983.31
2024-02-04T01:38:54.728Z,150988.31
2024-02-04T01:40:56.255Z,151028.69
2024-02-04T01:42:57.844Z,151023.69
2024-02-04T01:44:59.886Z,150995.91
2024-02-04T01:47:01.626Z,150995.91
2024-02-04T01:49:03.251Z,151070.31
2024-02-04T01:51:06.517Z,150984.56
2024-02-04T01:53:08.380Z,151009.75
2024-02-04T01:55:10.117Z,151028.69
2024-02-04T01:57:13.254Z,151007.22
2024-02-04T01:59:14.931Z,150993.38
2024-02-04T02:01:17.253Z,150989.59
2024-02-04T02:03:18.901Z,150982.03
2024-02-04T02:05:20.682Z,150978.25
2024-02-04T02:07:22.484Z,150961.84
2024-02-04T02:09:24.397Z,150953.00
2024-02-04T02:11:43.829Z,150893.75
2024-02-04T02:13:51.110Z,150922.75
2024-02-04T02:15:57.848Z,150968.13
2024-02-04T02:18:08.731Z,150968.13
2024-02-04T02:20:22.357Z,151011.03
2024-02-04T02:22:37.669Z,150988.31
2024-02-04T02:24:43.399Z,150983.31
2024-02-04T02:26:45.581Z,150947.94
2024-02-04T02:28:47.415Z,150878.63
2024-02-04T02:30:49.234Z,150893.75
2024-02-04T02:32:51.115Z,150966.88
2024-02-04T02:34:53.278Z,150927.78
2024-02-04T02:37:04.162Z,150931.56
2024-02-04T02:39:19.468Z,150965.66
2024-02-04T02:41:22.358Z,150942.94
2024-02-04T02:43:25.120Z,150891.22
2024-02-04T02:45:27.553Z,150912.66
2024-02-04T02:47:30.670Z,150954.28
2024-02-04T02:49:32.386Z,150950.47
2024-02-04T02:51:34.007Z,150973.19
2024-02-04T02:53:35.965Z,150862.22
2024-02-04T02:55:37.481Z,150937.88
2024-02-04T02:57:39.157Z,150863.44
2024-02-04T02:59:41.072Z,150876.09
2024-02-04T03:01:42.772Z,150840.78
2024-02-04T03:03:44.425Z,150799.19
2024-02-04T03:05:46.316Z,150830.69
2024-02-04T03:07:47.876Z,150791.59
2024-02-04T03:09:49.484Z,150813.03
2024-02-04T03:11:51.208Z,150813.03
2024-02-04T03:13:52.977Z,150794.13
2024-02-04T03:15:54.505Z,150804.19
2024-02-04T03:17:56.078Z,150837.00
2024-02-04T03:19:57.868Z,150732.38
2024-02-04T03:21:59.539Z,150797.94
2024-02-04T03:24:01.208Z,150806.72
2024-02-04T03:26:02.871Z,150708.41
2024-02-04T03:28:05.257Z,150761.31
2024-02-04T03:30:07.565Z,150716.00
2024-02-04T03:32:09.151Z,150734.88
2024-02-04T03:34:10.876Z,150741.16
2024-02-04T03:36:12.912Z,150618.91
2024-02-04T03:38:14.420Z,150681.94
2024-02-04T03:40:16.097Z,150688.25
2024-02-04T03:42:18.024Z,150736.16
2024-02-04T03:44:19.530Z,150699.56
2024-02-04T03:46:21.286Z,150693.28
2024-02-04T03:48:23.114Z,150708.41
2024-02-04T03:50:24.729Z,150683.19
2024-02-04T03:52:26.534Z,150693.28
2024-02-04T03:54:28.232Z,150718.53
2024-02-04T03:56:29.783Z,150664.28
2024-02-04T03:58:33.512Z,150717.25
2024-02-04T04:00:35.163Z,150703.34
2024-02-04T04:02:37.040Z,150630.28
2024-02-04T04:04:41.242Z,150694.56
2024-02-04T04:06:44.125Z,150669.34
2024-02-04T04:08:45.981Z,150637.88
2024-02-04T04:10:47.485Z,150607.59
2024-02-04T04:12:49.053Z,150592.50
2024-02-04T04:14:50.894Z,150569.81
2024-02-04T04:16:52.395Z,150581.13
2024-02-04T04:18:54.444Z,150545.88
2024-02-04T04:20:56.024Z,150540.81
2024-02-04T04:22:57.610Z,150581.13
2024-02-04T04:24:59.646Z,150554.72
2024-02-04T04:27:01.268Z,150602.56
2024-02-04T04:29:02.777Z,150543.34
2024-02-04T04:31:04.711Z,150577.34
2024-02-04T04:33:06.375Z,150589.97
2024-02-04T04:35:08.198Z,150601.28
2024-02-04T04:37:09.888Z,150612.66
2024-02-04T04:39:11.448Z,150622.72
2024-02-04T04:41:13.102Z,150623.97
2024-02-04T04:43:15.162Z,150655.50
2024-02-04T04:45:16.779Z,150660.50
2024-02-04T04:47:18.457Z,150626.50
2024-02-04T04:49:20.217Z,150620.19
2024-02-04T04:51:22.017Z,150646.66
2024-02-04T04:53:23.590Z,150622.72
2024-02-04T04:55:25.132Z,150670.59
2024-02-04T04:57:26.860Z,150640.34
2024-02-04T04:59:28.417Z,150623.97
2024-02-04T05:01:30.002Z,150663.03
2024-02-04T05:03:31.776Z,150695.81
2024-02-04T05:05:33.371Z,150689.50
2024-02-04T05:07:35.350Z,150655.50
2024-02-04T05:09:36.985Z,150656.75
2024-02-04T05:11:38.519Z,150659.25
2024-02-04T05:13:40.835Z,150683.19
2024-02-04T05:15:42.387Z,150710.94
2024-02-04T05:17:43.998Z,150634.06
2024-02-04T05:19:46.001Z,150650.44
2024-02-04T05:21:47.704Z,150636.59
2024-02-04T05:23:49.359Z,150660.50
2024-02-04T05:25:51.048Z,150663.03
2024-02-04T05:27:52.644Z,150644.13
2024-02-04T05:29:54.419Z,150649.19
2024-02-04T05:31:56.017Z,150625.22
2024-02-04T05:33:57.924Z,150612.66
2024-02-04T05:35:59.751Z,150602.56
2024-02-04T05:38:01.399Z,150618.91
2024-02-04T05:40:03.620Z,150634.06
2024-02-04T05:42:05.484Z,150595.03
2024-02-04T05:44:07.356Z,150596.28
2024-02-04T05:46:09.178Z,150572.34
2024-02-04T05:48:11.531Z,150563.50
2024-02-04T05:50:13.363Z,150589.97
2024-02-04T05:52:15.906Z,150576.13
2024-02-04T05:54:17.435Z,150606.34
2024-02-04T05:56:19.399Z,150611.38
2024-02-04T05:58:20.922Z,150589.97
2024-02-04T06:00:22.548Z,150626.50
2024-02-04T06:02:24.573Z,150558.44
2024-02-04T06:04:26.171Z,150586.19
2024-02-04T06:06:27.852Z,150558.44
2024-02-04T06:08:29.737Z,150606.34
2024-02-04T06:10:31.277Z,150595.03
2024-02-04T06:12:33.117Z,150542.09
2024-02-04T06:14:35.434Z,150548.41
2024-02-04T06:16:36.941Z,150569.81
2024-02-04T06:18:39.206Z,150519.41
2024-02-04T06:20:40.786Z,150549.66
2024-02-04T06:22:42.299Z,150557.19
2024-02-04T06:24:43.901Z,150554.72
2024-02-04T06:26:45.547Z,150520.66
2024-02-04T06:28:47.379Z,150501.78
2024-02-04T06:30:50.058Z,150487.94
2024-02-04T06:32:51.761Z,150534.56
2024-02-04T06:34:53.511Z,150548.41
2024-02-04T06:36:55.212Z,150523.19
2024-02-04T06:38:56.818Z,150505.56
2024-02-04T06:40:58.322Z,150509.34
2024-02-04T06:42:59.978Z,150490.47
2024-02-04T06:45:01.579Z,150553.44
2024-02-04T06:47:03.262Z,150532.03
2024-02-04T06:49:04.931Z,150526.97
2024-02-04T06:51:06.528Z,150539.56
2024-02-04T06:53:08.055Z,150525.72
2024-02-04T06:55:10.005Z,150562.22
2024-02-04T06:57:11.791Z,150510.63
2024-02-04T06:59:13.465Z,150587.44
2024-02-04T07:01:15.839Z,150568.56
2024-02-04T07:03:17.479Z,150532.03
2024-02-04T07:05:19.377Z,150566.03
2024-02-04T07:07:21.026Z,150562.22
2024-02-04T07:09:22.529Z,150603.81
2024-02-04T07:11:24.390Z,150579.88
2024-02-04T07:13:25.907Z,150563.50
2024-02-04T07:15:27.714Z,150528.25
2024-02-04T07:17:29.265Z,150589.97
2024-02-04T07:19:30.903Z,150577.34
2024-02-04T07:21:32.796Z,150569.81
2024-02-04T07:23:34.367Z,150602.56
2024-02-04T07:25:35.924Z,150610.13
2024-02-04T07:27:37.845Z,150557.19
2024-02-04T07:29:39.440Z,150620.19
2024-02-04T07:31:41.335Z,150528.25
2024-02-04T07:33:43.276Z,150587.44
2024-02-04T07:35:44.864Z,150592.50
2024-02-04T07:37:46.503Z,150635.34
2024-02-04T07:39:48.213Z,150584.91
2024-02-04T07:41:49.737Z,150612.66
2024-02-04T07:43:51.372Z,150605.06
2024-02-04T07:45:53.192Z,150602.56
2024-02-04T07:47:54.997Z,150554.72
2024-02-04T07:49:56.571Z,150606.34
2024-02-04T07:51:58.358Z,150608.88
2024-02-04T07:54:00.146Z,150583.66
2024-02-04T07:56:01.679Z,150634.06
2024-02-04T07:58:03.527Z,150583.66
2024-02-04T08:00:06.161Z,150593.75
2024-02-04T08:02:07.776Z,150646.66
2024-02-04T08:04:09.854Z,150607.59
2024-02-04T08:06:11.546Z,150642.88
2024-02-04T08:08:13.257Z,150593.75
2024-02-04T08:10:15.554Z,150579.88
2024-02-04T08:12:17.324Z,150616.44
2024-02-04T08:14:18.859Z,150625.22
2024-02-04T08:16:20.822Z,150617.66
2024-02-04T08:18:22.377Z,150592.50
2024-02-04T08:20:24.232Z,150656.75
2024-02-04T08:22:26.147Z,150632.81
2024-02-04T08:24:27.696Z,150686.97
2024-02-04T08:26:29.409Z,150689.50
2024-02-04T08:28:31.065Z,150651.72
2024-02-04T08:30:32.605Z,150636.59
2024-02-04T08:32:34.467Z,150625.22
2024-02-04T08:34:36.244Z,150669.34
2024-02-04T08:36:38.191Z,150679.41
2024-02-04T08:38:39.781Z,150665.56
2024-02-04T08:40:41.428Z,150685.72
2024-02-04T08:42:43.116Z,150784.03
2024-02-04T08:44:44.606Z,150699.56
2024-02-04T08:46:46.280Z,150718.53
2024-02-04T08:48:48.043Z,150588.72
2024-02-04T08:50:51.251Z,150737.41
2024-02-04T08:52:54.285Z,150713.47
2024-02-04T08:54:55.792Z,150714.72
2024-02-04T08:56:57.341Z,150760.13
2024-02-04T08:58:59.112Z,150796.66
2024-02-04T09:01:00.725Z,150789.06
2024-02-04T09:03:02.322Z,150748.75
2024-02-04T09:05:04.195Z,150796.66
2024-02-04T09:07:05.778Z,150849.59
2024-02-04T09:09:07.365Z,150872.28
2024-02-04T09:11:09.035Z,150887.41
2024-02-04T09:13:10.682Z,150848.34
2024-02-04T09:15:12.309Z,150784.03
2024-02-04T09:17:14.350Z,150789.06
2024-02-04T09:19:16.120Z,150780.28
2024-02-04T09:21:18.081Z,150785.28
2024-02-04T09:23:20.178Z,150838.28
2024-02-04T09:25:21.761Z,150829.41
2024-02-04T09:27:23.303Z,150818.09
2024-02-04T09:29:25.239Z,150794.13
2024-02-04T09:31:27.099Z,150816.84
2024-02-04T09:33:28.872Z,150843.28
2024-02-04T09:35:31.051Z,150794.13
2024-02-04T09:37:33.045Z,150747.47
2024-02-04T09:39:34.757Z,150716.00
2024-02-04T09:41:36.866Z,150837.00
2024-02-04T09:43:39.428Z,150781.50
2024-02-04T09:45:41.753Z,150779.03
2024-02-04T09:47:45.391Z,150795.41
2024-02-04T09:49:47.199Z,150821.88
2024-02-04T09:51:49.371Z,150814.31
2024-02-04T09:53:54.067Z,150781.50
2024-02-04T09:55:57.254Z,150705.88
2024-02-04T09:57:59.069Z,150760.13
2024-02-04T10:00:01.177Z,150809.25
2024-02-04T10:02:04.704Z,150835.75
2024-02-04T10:04:06.705Z,150738.69
2024-02-04T10:06:09.164Z,150824.38
2024-02-04T10:08:10.951Z,150816.84
2024-02-04T10:10:13.729Z,150834.47
2024-02-04T10:12:15.734Z,150789.06
2024-02-04T10:14:18.596Z,150777.75
2024-02-04T10:16:21.004Z,150777.75
2024-02-04T10:18:22.863Z,150786.56
2024-02-04T10:20:24.522Z,150828.16
2024-02-04T10:22:27.687Z,150799.19
2024-02-04T10:24:29.640Z,150829.41
2024-02-04T10:26:31.536Z,150825.63
2024-02-04T10:28:33.296Z,150797.94
2024-02-04T10:30:34.850Z,150834.47
2024-02-04T10:32:36.444Z,150829.41
2024-02-04T10:34:39.168Z,150837.00
2024-02-04T10:36:41.312Z,150884.88
2024-02-04T10:38:42.854Z,150865.97
2024-02-04T10:40:45.929Z,150905.06
2024-02-04T10:42:47.830Z,150897.53
2024-02-04T10:44:52.023Z,150853.38
2024-02-04T10:46:55.497Z,150896.25
2024-02-04T10:49:00.677Z,150906.31
2024-02-04T10:51:03.331Z,150908.84
2024-02-04T10:53:12.276Z,150891.22
2024-02-04T10:55:16.373Z,150869.78
2024-02-04T10:57:24.126Z,150881.16
2024-02-04T10:59:27.058Z,150881.16
2024-02-04T11:01:29.509Z,150939.16
2024-02-04T11:03:31.736Z,150886.16
2024-02-04T11:05:35.292Z,150860.97
2024-02-04T11:07:37.187Z,150844.53
2024-02-04T11:09:39.114Z,150849.59
2024-02-04T11:11:41.378Z,150907.59
2024-02-04T11:13:46.487Z,150940.41
2024-02-04T11:15:49.192Z,150950.47
2024-02-04T11:18:13.756Z,150884.88
2024-02-04T11:20:18.475Z,150913.91
2024-02-04T11:22:52.078Z,150944.22
2024-02-04T11:25:08.876Z,150964.38
2024-02-04T11:27:10.777Z,150989.59
2024-02-04T11:29:12.383Z,150968.13
2024-02-04T11:31:19.054Z,151033.75
2024-02-04T11:33:22.953Z,151016.09
2024-02-04T11:35:25.696Z,150963.13
2024-02-04T11:37:27.734Z,150999.69
2024-02-04T11:39:29.566Z,150974.47
2024-02-04T11:41:31.224Z,151036.28
2024-02-04T11:43:37.196Z,150990.84
2024-02-04T11:45:40.468Z,150920.25
2024-02-04T11:47:42.519Z,150976.97
2024-02-04T11:49:54.713Z,150925.25
2024-02-04T11:51:56.828Z,150988.31
2024-02-04T11:53:58.495Z,150961.84
2024-02-04T11:56:01.927Z,150921.50
2024-02-04T11:58:06.662Z,150912.66
2024-02-04T12:00:09.226Z,150955.53
2024-02-04T12:02:11.758Z,150936.63
2024-02-04T12:04:15.030Z,150926.50
2024-02-04T12:06:16.973Z,150940.41
2024-02-04T12:08:18.969Z,150922.75
2024-02-04T12:10:21.396Z,150918.97
2024-02-04T12:12:24.020Z,150862.22
2024-02-04T12:14:26.171Z,150879.88
2024-02-04T12:16:28.233Z,150887.41
2024-02-04T12:18:30.024Z,150844.53
2024-02-04T12:20:31.921Z,150915.19
2024-02-04T12:22:33.822Z,150945.44
2024-02-04T12:24:35.397Z,150884.88
2024-02-04T12:26:37.063Z,150940.41
2024-02-04T12:28:38.728Z,150925.25
2024-02-04T12:30:40.328Z,150931.56
2024-02-04T12:32:42.050Z,150889.94
2024-02-04T12:34:48.322Z,150947.94
2024-02-04T12:36:59.005Z,150932.84
2024-02-04T12:39:02.166Z,150961.84
2024-02-04T12:41:04.010Z,150951.75
2024-02-04T12:43:06.828Z,150950.47
2024-02-04T12:45:09.381Z,150941.69
2024-02-04T12:47:10.960Z,150993.38
2024-02-04T12:49:20.362Z,150945.44
2024-02-04T12:51:32.446Z,150980.78
2024-02-04T12:53:34.100Z,150936.63
2024-02-04T12:55:37.336Z,150980.78
2024-02-04T12:57:39.055Z,150978.25
2024-02-04T12:59:40.758Z,150916.44
2024-02-04T13:01:42.555Z,150993.38
2024-02-04T13:03:44.339Z,150971.94
2024-02-04T13:05:46.181Z,150988.31
2024-02-04T13:07:52.668Z,151008.50
2024-02-04T13:10:00.612Z,150912.66
2024-02-04T13:12:09.874Z,150980.78
2024-02-04T13:14:11.781Z,150968.13
2024-02-04T13:16:13.528Z,150982.03
2024-02-04T13:18:15.388Z,151035.00
2024-02-04T13:20:16.930Z,150995.91
2024-02-04T13:22:18.561Z,150969.41
2024-02-04T13:24:20.251Z,151006.03
2024-02-04T13:26:22.165Z,150965.66
2024-02-04T13:28:23.906Z,151016.09
2024-02-04T13:30:25.632Z,150982.03
2024-02-04T13:32:27.257Z,150994.63
2024-02-04T13:34:29.054Z,151046.38
2024-02-04T13:36:30.914Z,151067.84
2024-02-04T13:38:32.543Z,151028.69
2024-02-04T13:40:34.118Z,151051.41
2024-02-04T13:42:36.950Z,151062.78
2024-02-04T13:44:38.566Z,150992.09
2024-02-04T13:46:41.365Z,151017.34
2024-02-04T13:48:43.174Z,150988.31
2024-02-04T13:50:44.729Z,151013.56
2024-02-04T13:52:46.245Z,151042.59
2024-02-04T13:54:47.944Z,150993.38
2024-02-04T13:56:49.515Z,151006.03
2024-02-04T13:58:51.702Z,151047.66
2024-02-04T14:00:53.688Z,150958.06
2024-02-04T14:02:55.246Z,150985.84
2024-02-04T14:04:57.830Z,151022.41
2024-02-04T14:06:59.464Z,151022.41
2024-02-04T14:09:00.993Z,150970.66
2024-02-04T14:11:02.647Z,151023.69
2024-02-04T14:13:07.726Z,151008.50
2024-02-04T14:15:11.191Z,150992.09
2024-02-04T14:17:12.807Z,150997.16
2024-02-04T14:19:14.636Z,150990.84
2024-02-04T14:21:16.305Z,151033.75
2024-02-04T14:23:17.842Z,151003.50
2024-02-04T14:25:19.701Z,151037.53
2024-02-04T14:27:21.281Z,150978.25
2024-02-04T14:29:22.875Z,150987.06
2024-02-04T14:31:24.686Z,150950.47
2024-02-04T14:33:26.228Z,151009.75
2024-02-04T14:35:27.744Z,150985.84
2024-02-04T14:37:29.450Z,151048.88
2024-02-04T14:39:31.023Z,151018.63
2024-02-04T14:41:35.222Z,151013.56
2024-02-04T14:43:37.192Z,151018.63
2024-02-04T14:45:39.317Z,150985.84
2024-02-04T14:47:40.960Z,151029.94
2024-02-04T14:49:42.763Z,151000.97
2024-02-04T14:51:44.480Z,150995.91
2024-02-04T14:53:46.290Z,151018.63
2024-02-04T14:55:47.955Z,150960.59
2024-02-04T14:57:49.506Z,150994.63
2024-02-04T14:59:51.249Z,150945.44
2024-02-04T15:01:52.982Z,150953.00
2024-02-04T15:03:54.540Z,150973.19
2024-02-04T15:05:56.113Z,150955.53
2024-02-04T15:07:57.837Z,150947.94
2024-02-04T15:09:59.389Z,150960.59
2024-02-04T15:12:01.529Z,150921.50
2024-02-04T15:14:03.426Z,150936.63
2024-02-04T15:16:05.305Z,150892.47
2024-02-04T15:18:10.608Z,150947.94
2024-02-04T15:20:14.469Z,150965.66
2024-02-04T15:22:17.888Z,150993.38
2024-02-04T15:24:19.896Z,150911.38
2024-02-04T15:26:21.887Z,150950.47
2024-02-04T15:28:25.079Z,150955.53
2024-02-04T15:30:26.939Z,150921.50
2024-02-04T15:32:28.852Z,150945.44
2024-02-04T15:34:31.007Z,150951.75
2024-02-04T15:36:32.785Z,150920.25
2024-02-04T15:38:34.455Z,150953.00
2024-02-04T15:40:36.039Z,150961.84
2024-02-04T15:42:37.567Z,150968.13
2024-02-04T15:44:39.361Z,151007.22
2024-02-04T15:46:43.201Z,150963.13
2024-02-04T15:48:47.283Z,150932.84
2024-02-04T15:50:49.147Z,150989.59
2024-02-04T15:52:51.522Z,150937.88
2024-02-04T15:54:53.271Z,150911.38
2024-02-04T15:57:14.025Z,150963.13
2024-02-04T15:59:19.332Z,150949.22
2024-02-04T16:01:24.214Z,150960.59
2024-02-04T16:03:26.147Z,150922.75
2024-02-04T16:05:28.219Z,150906.31
2024-02-04T16:07:30.204Z,150932.84
2024-02-04T16:09:32.001Z,150925.25
2024-02-04T16:11:59.072Z,150913.91
2024-02-04T16:14:03.373Z,150945.44
2024-02-04T16:16:09.492Z,150949.22
2024-02-04T16:18:11.677Z,150942.94
2024-02-04T16:20:13.945Z,150969.41
2024-02-04T16:22:17.076Z,150947.94
2024-02-04T16:24:18.838Z,150889.94
2024-02-04T16:26:20.396Z,150917.72
2024-02-04T16:28:22.294Z,150917.72
2024-02-04T16:30:25.509Z,150824.38
2024-02-04T16:32:27.234Z,150900.06
2024-02-04T16:34:28.880Z,150889.94
2024-02-04T16:36:30.488Z,150910.13
2024-02-04T16:38:32.104Z,150958.06
2024-02-04T16:40:33.608Z,150945.44
2024-02-04T16:42:35.160Z,150953.00
2024-02-04T16:44:36.826Z,150929.03
2024-02-04T16:46:41.960Z,150960.59
2024-02-04T16:48:43.577Z,150924.03
2024-02-04T16:50:45.162Z,150970.66
2024-02-04T16:52:46.842Z,150959.34
2024-02-04T16:54:48.378Z,150922.75
2024-02-04T16:56:50.099Z,150935.34
2024-02-04T16:58:51.766Z,150954.28
2024-02-04T17:00:53.391Z,150955.53
2024-02-04T17:02:55.314Z,150951.75
2024-02-04T17:04:57.156Z,150947.94
2024-02-04T17:06:59.003Z,150936.63
2024-02-04T17:09:00.796Z,150960.59
2024-02-04T17:11:02.910Z,150979.50
2024-02-04T17:13:04.824Z,150945.44
2024-02-04T17:15:07.066Z,150889.94
2024-02-04T17:17:16.595Z,150982.03
2024-02-04T17:19:24.625Z,150966.88
2024-02-04T17:21:55.032Z,150956.81
2024-02-04T17:24:11.136Z,150945.44
2024-02-04T17:26:19.577Z,150906.31
2024-02-04T17:28:21.567Z,150925.25
2024-02-04T17:30:23.560Z,150936.63
2024-02-04T17:32:25.397Z,150953.00
2024-02-04T17:34:27.326Z,150953.00
2024-02-04T17:36:28.971Z,150944.22
2024-02-04T17:38:30.488Z,150974.47
2024-02-04T17:40:32.108Z,150915.19
2024-02-04T17:42:33.787Z,150913.91
2024-02-04T17:44:35.783Z,150920.25
2024-02-04T17:46:37.454Z,150955.53
2024-02-04T17:48:39.230Z,150994.63
2024-02-04T17:50:40.817Z,150930.31
2024-02-04T17:52:42.355Z,150958.06
2024-02-04T17:54:44.031Z,150944.22
2024-02-04T17:56:45.559Z,150949.22
2024-02-04T17:58:47.090Z,150958.06
2024-02-04T18:00:48.995Z,150989.59
2024-02-04T18:02:50.565Z,150963.13
2024-02-04T18:04:52.310Z,150941.69
2024-02-04T18:06:53.965Z,150968.13
2024-02-04T18:08:55.568Z,150958.06
2024-02-04T18:10:57.339Z,150973.19
2024-02-04T18:12:59.073Z,150941.69
2024-02-04T18:15:00.590Z,150896.25
2024-02-04T18:17:02.300Z,150956.81
2024-02-04T18:19:04.160Z,150969.41
2024-02-04T18:21:06.251Z,150912.66
2024-02-04T18:23:07.932Z,150889.94
2024-02-04T18:25:09.800Z,150960.59
2024-02-04T18:27:11.348Z,150949.22
2024-02-04T18:29:13.069Z,150942.94
2024-02-04T18:31:15.196Z,150958.06
2024-02-04T18:33:16.931Z,150944.22
2024-02-04T18:35:18.727Z,150960.59
2024-02-04T18:37:20.434Z,150936.63
2024-02-04T18:39:21.961Z,150944.22
2024-02-04T18:41:24.045Z,150968.13
2024-02-04T18:43:25.747Z,151000.97
2024-02-04T18:45:27.316Z,150965.66
2024-02-04T18:47:29.000Z,150935.34
2024-02-04T18:49:30.798Z,150993.38
2024-02-04T18:51:32.537Z,150915.19
2024-02-04T18:53:35.068Z,151004.75
2024-02-04T18:55:36.636Z,150947.94
2024-02-04T18:57:38.189Z,150954.28
2024-02-04T18:59:39.981Z,150969.41
2024-02-04T19:01:41.625Z,150992.09
2024-02-04T19:03:43.277Z,150985.84
2024-02-04T19:05:45.181Z,150978.25
2024-02-04T19:07:46.781Z,150983.31
2024-02-04T19:09:48.416Z,150916.44
2024-02-04T19:11:50.047Z,150905.06
2024-02-04T19:13:51.556Z,150937.88
2024-02-04T19:15:53.121Z,150917.72
2024-02-04T19:17:54.740Z,150937.88
2024-02-04T19:19:56.408Z,150929.03
2024-02-04T19:21:57.989Z,150969.41
2024-02-04T19:23:59.650Z,150945.44
2024-02-04T19:26:01.193Z,150915.19
2024-02-04T19:28:02.738Z,150950.47
2024-02-04T19:30:05.424Z,150978.25
2024-02-04T19:32:07.422Z,150980.78
2024-02-04T19:34:09.192Z,150946.69
2024-02-04T19:36:11.019Z,150982.03
2024-02-04T19:38:12.608Z,150922.75
2024-02-04T19:40:15.850Z,150955.53
2024-02-04T19:42:18.450Z,150944.22
2024-02-04T19:44:21.037Z,150917.72
2024-02-04T19:46:22.641Z,150874.81
2024-02-04T19:48:24.608Z,150976.97
2024-02-04T19:50:26.151Z,150946.69
2024-02-04T19:52:27.932Z,150917.72
2024-02-04T19:54:29.453Z,150950.47
2024-02-04T19:56:30.996Z,150946.69
2024-02-04T19:58:32.576Z,150927.78
2024-02-04T20:00:34.240Z,150917.72
2024-02-04T20:02:35.964Z,150888.69
2024-02-04T20:04:37.574Z,150954.28
2024-02-04T20:06:39.239Z,150960.59
2024-02-04T20:08:40.839Z,150950.47
2024-02-04T20:10:42.369Z,150935.34
2024-02-04T20:12:44.119Z,150915.19
2024-02-04T20:14:46.933Z,150947.94
2024-02-04T20:16:48.662Z,150953.00
2024-02-04T20:18:50.181Z,150944.22
2024-02-04T20:20:51.734Z,150897.53
2024-02-04T20:22:53.465Z,150877.34
2024-02-04T20:24:55.125Z,150886.16
2024-02-04T20:26:56.820Z,150953.00
2024-02-04T20:28:58.529Z,150937.88
2024-02-04T20:31:00.278Z,150970.66
2024-02-04T20:33:01.904Z,150939.16
2024-02-04T20:35:03.634Z,150917.72
2024-02-04T20:37:05.431Z,150915.19
2024-02-04T20:39:07.183Z,150893.75
2024-02-04T20:41:09.380Z,150941.69
2024-02-04T20:43:11.241Z,150917.72
2024-02-04T20:45:12.912Z,150926.50
2024-02-04T20:47:14.476Z,150951.75
2024-02-04T20:49:16.169Z,150955.53
2024-02-04T20:51:18.078Z,150937.88
2024-02-04T20:53:19.647Z,150976.97
2024-02-04T20:55:21.420Z,150980.78
2024-02-04T20:57:23.093Z,150971.94
2024-02-04T20:59:24.615Z,150953.00
2024-02-04T21:01:26.238Z,150954.28
2024-02-04T21:03:28.184Z,150924.03
2024-02-04T21:05:29.860Z,150980.78
2024-02-04T21:07:31.823Z,150950.47
2024-02-04T21:09:33.581Z,150965.66
2024-02-04T21:11:35.181Z,150950.47
2024-02-04T21:13:36.830Z,150984.56
2024-02-04T21:15:38.827Z,150990.84
2024-02-04T21:17:40.533Z,150973.19
2024-02-04T21:19:42.592Z,150963.13
2024-02-04T21:21:44.596Z,150955.53
2024-02-04T21:23:46.242Z,151007.22
2024-02-04T21:25:47.937Z,150902.59
2024-02-04T21:27:49.635Z,150965.66
2024-02-04T21:29:51.196Z,151035.00
2024-02-04T21:31:52.829Z,150941.69
2024-02-04T21:33:54.499Z,150983.31
2024-02-04T21:35:56.382Z,150995.91
2024-02-04T21:37:58.029Z,150974.47
2024-02-04T21:40:00.028Z,150961.84
2024-02-04T21:42:01.559Z,150922.75
2024-02-04T21:44:03.314Z,150975.72
2024-02-04T21:46:05.063Z,150958.06
2024-02-04T21:48:09.594Z,150963.13
2024-02-04T21:50:11.389Z,150969.41
2024-02-04T21:52:13.001Z,150993.38
2024-02-04T21:54:14.608Z,150963.13
2024-02-04T21:56:16.380Z,150983.31
2024-02-04T21:58:18.190Z,151002.22
2024-02-04T22:00:19.877Z,150993.38
2024-02-04T22:02:21.419Z,150969.41
2024-02-04T22:04:23.427Z,150969.41
2024-02-04T22:06:25.087Z,151045.13
2024-02-04T22:08:26.858Z,150953.00
2024-02-04T22:10:28.393Z,150968.13
2024-02-04T22:12:29.915Z,150994.63
2024-02-04T22:14:31.674Z,150975.72
2024-02-04T22:16:33.232Z,150968.13
2024-02-04T22:18:34.802Z,150993.38
2024-02-04T22:20:36.570Z,151022.41
2024-02-04T22:22:38.330Z,150942.94
2024-02-04T22:24:39.870Z,150990.84
2024-02-04T22:26:41.557Z,150984.56
2024-02-04T22:28:43.319Z,151027.41
2024-02-04T22:30:44.845Z,150997.16
2024-02-04T22:32:46.455Z,151013.56
2024-02-04T22:34:48.383Z,150968.13
2024-02-04T22:36:50.017Z,150968.13
2024-02-04T22:38:52.041Z,151022.41
2024-02-04T22:40:53.692Z,150971.94
2024-02-04T22:42:55.348Z,151028.69
2024-02-04T22:44:56.937Z,151011.03
2024-02-04T22:46:58.794Z,151053.94
2024-02-04T22:49:00.379Z,150994.63
2024-02-04T22:51:02.090Z,150987.06
2024-02-04T22:53:03.741Z,150983.31
2024-02-04T22:55:05.773Z,151018.63
2024-02-04T22:57:07.452Z,150990.84
2024-02-04T22:59:09.461Z,151032.47
2024-02-04T23:01:12.504Z,150999.69
2024-02-04T23:03:14.129Z,150978.25
2024-02-04T23:05:15.843Z,151053.94
2024-02-04T23:07:20.403Z,151040.06
2024-02-04T23:09:26.155Z,151008.50
2024-02-04T23:11:27.715Z,151022.41
2024-02-04T23:13:29.616Z,150980.78
2024-02-04T23:15:31.190Z,151014.81
2024-02-04T23:17:32.761Z,151002.22